createdAt,value
2022-10-18T00:00:32.554Z,15.51
2022-10-18T00:02:58.872Z,15.58
2022-10-18T00:05:25.214Z,15.59
2022-10-18T00:07:51.532Z,15.63
2022-10-18T00:10:17.922Z,15.50
2022-10-18T00:12:44.240Z,15.44
2022-10-18T00:15:10.771Z,15.39
2022-10-18T00:17:37.472Z,15.39
2022-10-18T00:20:04.116Z,15.31
2022-10-18T00:22:30.729Z,15.34
2022-10-18T00:24:57.358Z,15.27
2022-10-18T00:27:23.671Z,15.25
2022-10-18T00:29:52.397Z,15.35
2022-10-18T00:32:18.730Z,15.25
2022-10-18T00:34:45.095Z,15.24
2022-10-18T00:37:11.415Z,15.22
2022-10-18T00:39:37.749Z,15.20
2022-10-18T00:42:04.116Z,15.27
2022-10-18T00:44:30.404Z,15.30
2022-10-18T00:46:58.059Z,15.28
2022-10-18T00:49:27.369Z,15.30
2022-10-18T00:51:56.206Z,15.36
2022-10-18T00:54:22.535Z,15.30
2022-10-18T00:56:48.871Z,15.35
2022-10-18T00:59:15.493Z,15.30
2022-10-18T01:01:41.856Z,15.34
2022-10-18T01:04:08.220Z,15.31
2022-10-18T01:06:35.305Z,15.27
2022-10-18T01:09:07.827Z,15.25
2022-10-18T01:11:40.323Z,15.25
2022-10-18T01:14:09.629Z,15.24
2022-10-18T01:16:44.924Z,15.27
2022-10-18T01:19:14.276Z,15.19
2022-10-18T01:21:45.912Z,15.12
2022-10-18T01:24:18.286Z,15.04
2022-10-18T01:26:50.787Z,15.10
2022-10-18T01:29:20.123Z,15.05
2022-10-18T01:31:59.502Z,14.93
2022-10-18T01:34:26.172Z,14.88
2022-10-18T01:36:53.167Z,14.86
2022-10-18T01:39:24.775Z,14.93
2022-10-18T01:41:51.234Z,14.85
2022-10-18T01:44:26.945Z,14.81
2022-10-18T01:46:53.367Z,14.78
2022-10-18T01:49:19.714Z,14.88
2022-10-18T01:51:46.229Z,14.81
2022-10-18T01:54:13.026Z,14.79
2022-10-18T01:56:59.631Z,14.75
2022-10-18T01:59:37.997Z,14.77
2022-10-18T02:02:13.415Z,14.72
2022-10-18T02:04:51.239Z,14.72
2022-10-18T02:07:22.789Z,14.67
2022-10-18T02:09:51.991Z,14.60
2022-10-18T02:12:18.315Z,14.57
2022-10-18T02:14:44.708Z,14.59
2022-10-18T02:17:11.063Z,14.53
2022-10-18T02:19:41.651Z,14.63
2022-10-18T02:22:08.187Z,14.58
2022-10-18T02:24:35.643Z,14.43
2022-10-18T02:27:02.125Z,14.35
2022-10-18T02:29:28.717Z,14.39
2022-10-18T02:31:56.067Z,14.46
2022-10-18T02:34:23.324Z,14.41
2022-10-18T02:36:53.595Z,14.36
2022-10-18T02:39:23.607Z,14.37
2022-10-18T02:41:49.924Z,14.37
2022-10-18T02:44:16.403Z,14.42
2022-10-18T02:46:42.732Z,14.34
2022-10-18T02:49:09.114Z,14.34
2022-10-18T02:51:35.685Z,14.30
2022-10-18T02:54:03.180Z,14.30
2022-10-18T02:56:29.545Z,14.21
2022-10-18T02:58:55.918Z,14.31
2022-10-18T03:01:22.354Z,14.40
2022-10-18T03:03:49.393Z,14.38
2022-10-18T03:06:15.874Z,14.27
2022-10-18T03:08:42.201Z,14.29
2022-10-18T03:11:08.541Z,14.16
2022-10-18T03:13:35.257Z,14.20
2022-10-18T03:16:01.798Z,14.19
2022-10-18T03:18:28.923Z,14.13
2022-10-18T03:20:55.250Z,14.02
2022-10-18T03:23:21.593Z,13.99
2022-10-18T03:25:47.924Z,14.02
2022-10-18T03:28:14.283Z,14.11
2022-10-18T03:30:40.611Z,14.22
2022-10-18T03:33:06.956Z,14.27
2022-10-18T03:35:33.284Z,14.16
2022-10-18T03:37:59.629Z,14.07
2022-10-18T03:40:26.037Z,14.09
2022-10-18T03:42:52.390Z,14.06
2022-10-18T03:45:18.756Z,14.04
2022-10-18T03:47:45.079Z,14.11
2022-10-18T03:50:11.486Z,14.06
2022-10-18T03:52:37.866Z,14.09
2022-10-18T03:55:04.295Z,14.07
2022-10-18T03:57:30.623Z,14.15
2022-10-18T03:59:56.937Z,14.10
2022-10-18T04:02:23.254Z,14.20
2022-10-18T04:04:49.655Z,14.21
2022-10-18T04:07:15.976Z,14.23
2022-10-18T04:09:42.295Z,14.19
2022-10-18T04:12:08.617Z,14.17
2022-10-18T04:14:34.943Z,14.25
2022-10-18T04:17:01.255Z,14.31
2022-10-18T04:19:27.755Z,14.35
2022-10-18T04:21:54.061Z,14.36
2022-10-18T04:24:20.397Z,14.34
2022-10-18T04:26:46.775Z,14.37
2022-10-18T04:29:13.140Z,14.38
2022-10-18T04:31:39.498Z,14.32
2022-10-18T04:34:05.834Z,14.26
2022-10-18T04:36:32.189Z,14.21
2022-10-18T04:38:58.553Z,14.30
2022-10-18T04:41:24.869Z,14.32
2022-10-18T04:43:51.201Z,14.25
2022-10-18T04:46:17.641Z,14.25
2022-10-18T04:48:43.962Z,14.30
2022-10-18T04:51:10.269Z,14.29
2022-10-18T04:53:36.651Z,14.29
2022-10-18T04:56:03.791Z,14.32
2022-10-18T04:58:30.107Z,14.35
2022-10-18T05:00:56.437Z,14.32
2022-10-18T05:03:22.790Z,14.41
2022-10-18T05:06:01.358Z,14.42
2022-10-18T05:08:28.579Z,14.34
2022-10-18T05:10:54.954Z,14.29
2022-10-18T05:13:21.319Z,14.30
2022-10-18T05:15:47.770Z,14.34
2022-10-18T05:18:14.086Z,14.27
2022-10-18T05:20:40.403Z,14.30
2022-10-18T05:23:06.845Z,14.34
2022-10-18T05:25:33.164Z,14.29
2022-10-18T05:28:03.453Z,14.34
2022-10-18T05:30:37.863Z,14.30
2022-10-18T05:33:04.177Z,14.31
2022-10-18T05:35:30.492Z,14.29
2022-10-18T05:37:56.840Z,14.28
2022-10-18T05:40:23.198Z,14.28
2022-10-18T05:42:52.586Z,14.30
2022-10-18T05:45:18.908Z,14.34
2022-10-18T05:47:45.268Z,14.33
2022-10-18T05:50:11.614Z,14.38
2022-10-18T05:52:37.925Z,14.38
2022-10-18T05:55:04.418Z,14.41
2022-10-18T05:57:30.973Z,14.43
2022-10-18T05:59:57.543Z,14.44
2022-10-18T06:02:23.896Z,14.47
2022-10-18T06:04:50.246Z,14.45
2022-10-18T06:07:16.566Z,14.39
2022-10-18T06:09:42.977Z,14.41
2022-10-18T06:12:09.412Z,14.41
2022-10-18T06:14:38.602Z,14.39
2022-10-18T06:17:04.914Z,14.37
2022-10-18T06:19:31.245Z,14.37
2022-10-18T06:21:57.554Z,14.39
2022-10-18T06:24:23.949Z,14.41
2022-10-18T06:26:50.316Z,14.42
2022-10-18T06:29:16.699Z,14.41
2022-10-18T06:31:43.015Z,14.42
2022-10-18T06:34:09.370Z,14.43
2022-10-18T06:36:35.681Z,14.50
2022-10-18T06:39:02.650Z,14.47
2022-10-18T06:41:28.964Z,14.47
2022-10-18T06:43:57.502Z,14.60
2022-10-18T06:46:24.080Z,14.71
2022-10-18T06:48:50.539Z,14.71
2022-10-18T06:51:18.360Z,14.74
2022-10-18T06:53:59.001Z,14.66
2022-10-18T06:56:31.076Z,14.54
2022-10-18T07:01:28.960Z,14.57
2022-10-18T07:03:55.407Z,14.55
2022-10-18T07:06:21.771Z,14.50
2022-10-18T07:08:48.449Z,14.47
2022-10-18T07:11:18.844Z,14.35
2022-10-18T07:13:45.252Z,14.33
2022-10-18T07:16:18.394Z,14.35
2022-10-18T07:18:46.367Z,14.38
2022-10-18T07:21:13.192Z,14.39
2022-10-18T07:23:40.259Z,14.46
2022-10-18T07:26:25.458Z,14.50
2022-10-18T07:28:55.256Z,14.48
2022-10-18T07:31:21.909Z,14.49
2022-10-18T07:33:48.316Z,14.51
2022-10-18T07:36:14.651Z,14.54
2022-10-18T07:38:41.148Z,14.52
2022-10-18T07:41:07.690Z,14.64
2022-10-18T07:43:34.451Z,14.58
2022-10-18T07:46:01.700Z,14.56
2022-10-18T07:48:28.185Z,14.53
2022-10-18T07:50:54.568Z,14.53
2022-10-18T07:53:21.048Z,14.52
2022-10-18T07:55:47.365Z,14.51
2022-10-18T07:58:13.687Z,14.55
2022-10-18T08:00:40.057Z,14.59
2022-10-18T08:03:06.385Z,14.62
2022-10-18T08:08:07.236Z,14.63
2022-10-18T08:10:34.683Z,14.68
2022-10-18T08:13:01.012Z,14.76
2022-10-18T08:15:27.447Z,14.77
2022-10-18T08:17:53.784Z,14.78
2022-10-18T08:20:30.519Z,14.81
2022-10-18T08:23:00.083Z,14.84
2022-10-18T08:25:26.961Z,14.89
2022-10-18T08:27:53.379Z,14.85
2022-10-18T08:30:19.734Z,14.81
2022-10-18T08:32:46.089Z,14.75
2022-10-18T08:35:12.419Z,14.84
2022-10-18T08:37:40.097Z,14.80
2022-10-18T08:40:06.873Z,14.83
2022-10-18T08:42:39.236Z,14.95
2022-10-18T08:45:12.518Z,14.90
2022-10-18T08:47:51.911Z,14.84
2022-10-18T08:50:21.889Z,14.86
2022-10-18T08:52:48.164Z,14.81
2022-10-18T08:55:36.683Z,14.80
2022-10-18T08:58:05.138Z,14.78
2022-10-18T09:00:34.456Z,14.66
2022-10-18T09:03:00.798Z,14.74
2022-10-18T09:05:40.333Z,14.74
2022-10-18T09:08:11.439Z,14.83
2022-10-18T09:10:40.643Z,14.82
2022-10-18T09:13:16.262Z,14.78
2022-10-18T09:15:42.563Z,14.87
2022-10-18T09:18:21.763Z,15.03
2022-10-18T09:20:56.521Z,14.94
2022-10-18T09:23:39.342Z,15.01
2022-10-18T09:26:16.410Z,15.15
2022-10-18T09:28:45.838Z,15.21
2022-10-18T09:31:27.496Z,15.25
2022-10-18T09:33:58.394Z,15.25
2022-10-18T09:36:25.948Z,15.30
2022-10-18T09:39:00.459Z,15.45
2022-10-18T09:41:33.163Z,15.59
2022-10-18T09:44:18.014Z,15.69
2022-10-18T09:46:56.393Z,15.65
2022-10-18T09:49:23.658Z,15.40
2022-10-18T09:51:50.187Z,15.41
2022-10-18T09:54:33.072Z,15.17
2022-10-18T09:57:18.216Z,15.40
2022-10-18T09:59:48.515Z,15.50
2022-10-18T10:02:15.673Z,15.55
2022-10-18T10:04:42.050Z,15.64
2022-10-18T10:07:09.205Z,15.55
2022-10-18T10:09:46.229Z,15.56
2022-10-18T10:12:27.995Z,15.49
2022-10-18T10:14:54.399Z,15.46
2022-10-18T10:17:21.660Z,15.46
2022-10-18T10:19:54.162Z,15.25
2022-10-18T10:22:25.736Z,15.25
2022-10-18T10:24:53.004Z,15.28
2022-10-18T10:27:43.219Z,15.33
2022-10-18T10:30:21.855Z,15.34
2022-10-18T10:32:48.843Z,15.42
2022-10-18T10:35:35.267Z,15.46
2022-10-18T10:38:10.380Z,15.48
2022-10-18T10:40:41.507Z,15.50
2022-10-18T10:43:25.081Z,15.50
2022-10-18T10:45:57.073Z,15.57
2022-10-18T10:48:23.385Z,15.63
2022-10-18T10:50:55.251Z,15.69
2022-10-18T10:53:26.151Z,15.69
2022-10-18T10:55:53.593Z,15.78
2022-10-18T10:58:19.921Z,15.80
2022-10-18T11:00:46.237Z,15.84
2022-10-18T11:03:34.534Z,15.98
2022-10-18T11:06:01.836Z,16.04
2022-10-18T11:08:29.886Z,16.03
2022-10-18T11:11:02.321Z,16.11
2022-10-18T11:13:36.963Z,16.06
2022-10-18T11:16:07.714Z,16.00
2022-10-18T11:18:34.668Z,16.09
2022-10-18T11:21:15.149Z,15.97
2022-10-18T11:23:42.061Z,15.83
2022-10-18T11:26:11.484Z,15.88
2022-10-18T11:28:43.913Z,15.92
2022-10-18T11:31:10.236Z,15.91
2022-10-18T11:34:08.061Z,15.74
2022-10-18T11:36:56.573Z,15.74
2022-10-18T11:39:53.737Z,15.75
2022-10-18T11:42:23.393Z,15.68
2022-10-18T11:44:59.317Z,15.41
2022-10-18T11:47:27.838Z,15.41
2022-10-18T11:50:00.292Z,15.46
2022-10-18T11:52:35.887Z,15.55
2022-10-18T11:55:05.486Z,15.75
2022-10-18T11:57:38.863Z,15.99
2022-10-18T12:00:17.435Z,16.20
2022-10-18T12:03:02.796Z,16.15
2022-10-18T12:05:29.272Z,16.55
2022-10-18T12:07:58.173Z,16.40
2022-10-18T12:10:37.677Z,16.62
2022-10-18T12:13:13.283Z,16.66
2022-10-18T12:15:39.628Z,16.60
2022-10-18T12:18:16.265Z,16.34
2022-10-18T12:20:43.264Z,16.61
2022-10-18T12:23:10.487Z,16.61
2022-10-18T12:25:37.422Z,16.59
2022-10-18T12:28:12.965Z,16.60
2022-10-18T12:30:43.871Z,16.79
2022-10-18T12:33:27.048Z,16.76
2022-10-18T12:36:13.200Z,16.63
2022-10-18T12:38:40.848Z,16.45
2022-10-18T12:41:07.201Z,16.45
2022-10-18T12:43:37.571Z,16.46
2022-10-18T12:46:08.242Z,16.99
2022-10-18T12:48:42.479Z,17.33
2022-10-18T12:51:16.045Z,17.45
2022-10-18T12:53:46.287Z,17.77
2022-10-18T12:56:27.896Z,17.23
2022-10-18T12:59:13.008Z,17.06
2022-10-18T13:01:51.719Z,16.71
2022-10-18T13:04:33.721Z,16.35
2022-10-18T13:07:07.921Z,16.32
2022-10-18T13:09:37.354Z,16.37
2022-10-18T13:12:09.666Z,16.32
2022-10-18T13:15:05.912Z,16.22
2022-10-18T13:17:43.952Z,16.04
2022-10-18T13:20:26.140Z,16.00
2022-10-18T13:23:05.201Z,16.02
2022-10-18T13:25:46.832Z,16.06
2022-10-18T13:28:32.091Z,16.35
2022-10-18T13:31:17.181Z,16.61
2022-10-18T13:33:43.538Z,17.21
2022-10-18T13:36:22.882Z,17.44
2022-10-18T13:38:50.389Z,17.47
2022-10-18T13:41:20.716Z,17.81
2022-10-18T13:43:56.122Z,17.63
2022-10-18T13:46:42.713Z,17.67
2022-10-18T13:49:41.806Z,18.01
2022-10-18T13:52:16.984Z,17.64
2022-10-18T13:55:02.244Z,17.44
2022-10-18T13:57:34.815Z,17.17
2022-10-18T14:00:07.028Z,16.63
2022-10-18T14:02:57.731Z,16.36
2022-10-18T14:05:35.245Z,15.66
2022-10-18T14:08:08.079Z,15.39
2022-10-18T14:11:02.307Z,15.06
2022-10-18T14:13:52.086Z,15.03
2022-10-18T14:16:21.530Z,15.08
2022-10-18T14:18:47.873Z,15.00
2022-10-18T14:21:21.116Z,14.94
2022-10-18T14:23:48.042Z,14.88
2022-10-18T14:26:15.355Z,14.64
2022-10-18T14:28:59.025Z,14.56
2022-10-18T14:31:26.147Z,14.46
2022-10-18T14:33:57.260Z,14.46
2022-10-18T14:36:25.208Z,14.28
2022-10-18T14:38:52.286Z,14.10
2022-10-18T14:41:21.732Z,14.06
2022-10-18T14:43:48.363Z,14.04
2022-10-18T14:46:19.119Z,14.10
2022-10-18T14:48:57.237Z,13.96
2022-10-18T14:51:23.696Z,13.82
2022-10-18T14:53:50.070Z,13.72
2022-10-18T14:56:26.912Z,13.59
2022-10-18T14:58:55.050Z,13.38
2022-10-18T15:01:21.775Z,13.36
2022-10-18T15:03:48.218Z,13.24
2022-10-18T15:06:16.196Z,13.06
2022-10-18T15:08:42.527Z,12.98
2022-10-18T15:11:11.848Z,13.15
2022-10-18T15:13:52.663Z,13.04
2022-10-18T15:16:21.284Z,12.99
2022-10-18T15:19:00.626Z,12.84
2022-10-18T15:21:26.977Z,12.76
2022-10-18T15:23:54.894Z,12.70
2022-10-18T15:26:44.766Z,12.62
2022-10-18T15:29:16.082Z,12.73
2022-10-18T15:31:43.022Z,12.60
2022-10-18T15:34:11.013Z,12.41
2022-10-18T15:36:37.431Z,12.28
2022-10-18T15:39:16.259Z,12.21
2022-10-18T15:41:45.726Z,12.25
2022-10-18T15:44:21.264Z,12.28
2022-10-18T15:46:47.681Z,12.35
2022-10-18T15:49:33.007Z,12.20
2022-10-18T15:52:08.909Z,12.27
2022-10-18T15:54:35.293Z,12.21
2022-10-18T15:57:08.492Z,12.17
2022-10-18T15:59:35.964Z,12.27
2022-10-18T16:02:02.386Z,12.09
2022-10-18T16:04:29.478Z,12.06
2022-10-18T16:06:56.810Z,11.94
2022-10-18T16:09:25.512Z,11.85
2022-10-18T16:11:56.625Z,11.83
2022-10-18T16:14:24.334Z,11.85
2022-10-18T16:16:51.739Z,11.80
2022-10-18T16:19:18.794Z,11.65
2022-10-18T16:21:45.140Z,11.81
2022-10-18T16:24:11.511Z,11.66
2022-10-18T16:26:37.881Z,11.59
2022-10-18T16:29:04.774Z,11.51
2022-10-18T16:31:31.840Z,11.35
2022-10-18T16:33:58.247Z,11.30
2022-10-18T16:36:32.896Z,11.32
2022-10-18T16:39:00.823Z,11.48
2022-10-18T16:41:27.210Z,11.34
2022-10-18T16:43:53.599Z,11.29
2022-10-18T16:46:23.925Z,11.35
2022-10-18T16:48:53.278Z,11.35
2022-10-18T16:51:20.718Z,11.24
2022-10-18T16:53:47.048Z,11.28
2022-10-18T16:56:15.460Z,11.36
2022-10-18T16:58:42.243Z,11.18
2022-10-18T17:01:10.834Z,11.17
2022-10-18T17:03:37.511Z,11.27
2022-10-18T17:06:03.960Z,11.23
2022-10-18T17:08:30.357Z,11.25
2022-10-18T17:10:58.664Z,11.32
2022-10-18T17:13:26.812Z,11.29
2022-10-18T17:15:57.114Z,10.89
2022-10-18T17:18:26.357Z,10.87
2022-10-18T17:20:52.733Z,10.79
2022-10-18T17:23:19.715Z,10.70
2022-10-18T17:25:58.945Z,10.81
2022-10-18T17:28:34.428Z,10.64
2022-10-18T17:31:01.640Z,10.62
2022-10-18T17:33:30.698Z,10.66
2022-10-18T17:35:57.034Z,10.75
2022-10-18T17:38:23.351Z,10.89
2022-10-18T17:40:52.514Z,10.73
2022-10-18T17:43:22.733Z,10.76
2022-10-18T17:45:49.747Z,10.59
2022-10-18T17:48:17.173Z,10.61
2022-10-18T17:50:43.755Z,10.62
2022-10-18T17:53:10.673Z,10.47
2022-10-18T17:55:37.115Z,10.55
2022-10-18T17:58:03.438Z,10.57
2022-10-18T18:00:31.101Z,10.46
2022-10-18T18:02:58.884Z,10.47
2022-10-18T18:05:26.676Z,10.52
2022-10-18T18:07:54.690Z,10.40
2022-10-18T18:10:21.776Z,10.47
2022-10-18T18:12:49.733Z,10.38
2022-10-18T18:15:16.083Z,10.35
2022-10-18T18:17:58.226Z,10.36
2022-10-18T18:20:25.074Z,10.37
2022-10-18T18:22:51.699Z,10.40
2022-10-18T18:25:18.040Z,10.31
2022-10-18T18:27:44.795Z,10.30
2022-10-18T18:30:12.289Z,10.33
2022-10-18T18:32:39.996Z,10.25
2022-10-18T18:35:07.739Z,10.16
2022-10-18T18:37:35.395Z,10.25
2022-10-18T18:40:02.562Z,10.16
2022-10-18T18:42:30.437Z,10.14
2022-10-18T18:44:57.922Z,10.07
2022-10-18T18:47:27.274Z,10.20
2022-10-18T18:49:56.755Z,10.11
2022-10-18T18:52:23.182Z,10.13
2022-10-18T18:54:49.607Z,10.06
2022-10-18T18:57:17.096Z,10.06
2022-10-18T18:59:43.939Z,10.04
2022-10-18T19:02:10.444Z,10.12
2022-10-18T19:04:37.455Z,10.11
2022-10-18T19:07:03.793Z,10.06
2022-10-18T19:09:31.717Z,9.98
2022-10-18T19:11:58.063Z,9.95
2022-10-18T19:14:27.910Z,9.90
2022-10-18T19:17:01.469Z,9.84
2022-10-18T19:19:31.489Z,9.76
2022-10-18T19:21:59.720Z,9.95
2022-10-18T19:24:26.548Z,9.94
2022-10-18T19:26:55.252Z,9.76
2022-10-18T19:29:32.142Z,9.79
2022-10-18T19:31:59.491Z,9.82
2022-10-18T19:34:26.567Z,9.61
2022-10-18T19:36:53.000Z,9.60
2022-10-18T19:39:22.490Z,9.58
2022-10-18T19:41:49.673Z,9.47
2022-10-18T19:44:16.347Z,9.47
2022-10-18T19:46:42.799Z,9.51
2022-10-18T19:49:09.340Z,9.57
2022-10-18T19:51:38.627Z,9.66
2022-10-18T19:54:06.226Z,9.59
2022-10-18T19:56:36.032Z,9.61
2022-10-18T19:59:02.752Z,9.71
2022-10-18T20:01:29.117Z,9.71
2022-10-18T20:03:55.609Z,9.71
2022-10-18T20:06:26.752Z,9.68
2022-10-18T20:08:53.437Z,9.66
2022-10-18T20:11:22.914Z,9.49
2022-10-18T20:13:49.410Z,9.42
2022-10-18T20:16:16.375Z,9.25
2022-10-18T20:18:44.352Z,9.31
2022-10-18T20:21:12.975Z,9.24
2022-10-18T20:23:39.576Z,9.23
2022-10-18T20:26:07.202Z,9.19
2022-10-18T20:28:36.687Z,9.38
2022-10-18T20:31:08.619Z,9.34
2022-10-18T20:33:35.441Z,9.30
2022-10-18T20:36:12.972Z,9.27
2022-10-18T20:38:40.172Z,9.28
2022-10-18T20:41:07.298Z,9.20
2022-10-18T20:43:34.873Z,9.12
2022-10-18T20:46:02.375Z,9.24
2022-10-18T20:48:30.057Z,9.16
2022-10-18T20:50:59.132Z,9.12
2022-10-18T20:53:25.450Z,9.04
2022-10-18T20:55:53.981Z,9.03
2022-10-18T20:58:20.334Z,9.02
2022-10-18T21:00:47.114Z,8.96
2022-10-18T21:03:13.424Z,8.95
2022-10-18T21:05:42.937Z,9.12
2022-10-18T21:08:11.617Z,9.07
2022-10-18T21:10:42.607Z,9.16
2022-10-18T21:13:09.152Z,9.09
2022-10-18T21:15:36.184Z,9.00
2022-10-18T21:18:02.541Z,9.03
2022-10-18T21:20:30.119Z,9.13
2022-10-18T21:22:59.305Z,9.13
2022-10-18T21:25:25.980Z,9.07
2022-10-18T21:27:52.879Z,9.00
2022-10-18T21:30:19.276Z,9.11
2022-10-18T21:32:45.697Z,9.13
2022-10-18T21:35:12.046Z,9.11
2022-10-18T21:37:42.791Z,9.25
2022-10-18T21:40:10.837Z,9.26
2022-10-18T21:42:38.018Z,9.23
2022-10-18T21:45:05.788Z,9.09
2022-10-18T21:47:35.145Z,8.95
2022-10-18T21:50:03.084Z,8.91
2022-10-18T21:52:29.655Z,9.20
2022-10-18T21:54:56.138Z,9.15
2022-10-18T21:57:22.464Z,9.21
2022-10-18T21:59:48.795Z,9.19
2022-10-18T22:02:15.112Z,9.17
2022-10-18T22:04:41.472Z,9.10
2022-10-18T22:07:07.791Z,9.20
2022-10-18T22:09:35.490Z,9.19
2022-10-18T22:12:05.111Z,9.08
2022-10-18T22:14:33.638Z,9.00
2022-10-18T22:17:00.050Z,8.88
2022-10-18T22:19:26.358Z,9.09
2022-10-18T22:21:52.834Z,8.95
2022-10-18T22:24:19.221Z,8.97
2022-10-18T22:26:53.180Z,9.06
2022-10-18T22:29:20.140Z,8.93
2022-10-18T22:31:47.619Z,8.92
2022-10-18T22:34:15.634Z,8.85
2022-10-18T22:36:42.011Z,8.79
2022-10-18T22:39:13.353Z,8.74
2022-10-18T22:41:39.872Z,8.66
2022-10-18T22:44:07.998Z,8.68
2022-10-18T22:46:35.170Z,8.58
2022-10-18T22:49:02.919Z,8.51
2022-10-18T22:51:29.329Z,8.42
2022-10-18T22:53:55.750Z,8.49
2022-10-18T22:56:23.538Z,8.33
2022-10-18T22:58:49.855Z,8.29
2022-10-18T23:01:18.265Z,8.31
2022-10-18T23:03:44.654Z,8.35
2022-10-18T23:06:20.687Z,8.21
2022-10-18T23:08:47.424Z,8.02
2022-10-18T23:11:13.820Z,8.03
2022-10-18T23:13:40.692Z,8.06
2022-10-18T23:16:07.336Z,8.18
2022-10-18T23:21:13.714Z,8.12
2022-10-18T23:23:40.779Z,8.09
2022-10-18T23:26:14.547Z,7.96
2022-10-18T23:28:42.992Z,7.95
2022-10-18T23:31:17.952Z,8.11
2022-10-18T23:33:44.740Z,8.02
2022-10-18T23:36:11.131Z,7.96
2022-10-18T23:38:43.754Z,7.97
2022-10-18T23:41:11.668Z,8.05
2022-10-18T23:43:47.991Z,7.96
2022-10-18T23:46:19.557Z,7.98
2022-10-18T23:48:48.070Z,8.06
2022-10-18T23:51:14.405Z,8.07
2022-10-18T23:53:40.823Z,8.12
2022-10-18T23:56:09.231Z,8.08
2022-10-18T23:58:36.030Z,8.09
